METAR Data
IDs: Format: Raw Decoded Include TAF

Data at: 2348 UTC 25 Oct 2021

KCOM 252335Z AUTO 15010G14KT 10SM CLR 31/13 A2990 RMK AO2 T03110130
KCOM 252315Z AUTO 15009KT 10SM CLR 32/12 A2990 RMK AO2 T03220121
KCOM 252255Z AUTO 17008KT 10SM CLR 33/12 A2990 RMK AO2 T03300120
KCOM 252235Z AUTO 16010KT 10SM CLR 33/12 A2990 RMK AO2 T03330115
KCOM 252215Z AUTO 18007KT 10SM CLR 34/11 A2990 RMK AO2 T03360108
KCOM 252155Z AUTO 17009KT 10SM CLR 34/12 A2990 RMK AO2 T03360119
KCOM 252135Z AUTO 17010G14KT 10SM CLR 34/13 A2991 RMK AO2 T03350128
KCOM 252115Z AUTO 20005KT 10SM CLR 34/13 A2991 RMK AO2 T03350127
KCOM 252055Z AUTO 17008KT 10SM CLR 33/12 A2991 RMK AO2 T03340117
KCOM 252035Z AUTO 17008KT 10SM CLR 33/12 A2992 RMK AO2 T03340116
KCOM 252015Z AUTO 22006KT 10SM CLR 33/11 A2993 RMK AO2 T03340107
KCOM 251955Z AUTO 21006KT 10SM CLR 33/11 A2993 RMK AO2 T03290114
KCOM 251935Z AUTO 20006KT 10SM CLR 32/13 A2994 RMK AO2 T03240131
KCOM 251915Z AUTO 21005KT 10SM CLR 32/14 A2995 RMK AO2 T03190144
KCOM 251855Z AUTO 22005KT 10SM CLR 32/15 A2996 RMK AO2 T03160154
KCOM 251835Z AUTO 19006KT 10SM CLR 31/17 A2997 RMK AO2 T03100172
KCOM 251815Z AUTO 22007KT 10SM CLR 31/18 A2997 RMK AO2 T03080177
KCOM 251755Z AUTO 21006KT 10SM CLR 30/18 A2998 RMK AO2 T03030180 10304 20130
KCOM 251735Z AUTO 20009KT 10SM CLR 30/18 A2999 RMK AO2 T02960178
KCOM 251715Z AUTO 20004KT 10SM CLR 29/17 A2999 RMK AO2 T02870174
KCOM 251655Z AUTO 17005KT 10SM CLR 28/17 A3000 RMK AO2 T02790166
KCOM 251635Z AUTO 20004KT 10SM CLR 27/16 A3001 RMK AO2 T02700161
KCOM 251615Z AUTO 22003KT 10SM CLR 26/15 A3000 RMK AO2 T02580153
KCOM 251555Z AUTO 20004KT 10SM CLR 25/14 A3001 RMK AO2 T02450139
KCOM 251535Z AUTO 00000KT 10SM CLR 23/13 A3001 RMK AO2 T02340129
KCOM 251515Z AUTO 00000KT 10SM CLR 22/12 A3001 RMK AO2 T02210123
KCOM 251455Z AUTO 00000KT 10SM CLR 21/11 A3001 RMK AO2 T02050108
KCOM 251435Z AUTO 00000KT 10SM CLR 19/10 A3001 RMK AO2 T01900098
KCOM 251415Z AUTO 00000KT 10SM CLR 18/10 A3000 RMK AO2 T01770097
KCOM 251355Z AUTO 00000KT 10SM CLR 17/10 A3000 RMK AO2 T01650097
KCOM 251335Z AUTO 00000KT 10SM CLR 15/09 A3000 RMK AO2 T01470093
KCOM 251315Z AUTO 28004KT 10SM CLR 14/09 A2999 RMK AO2 T01370088
KCOM 251255Z AUTO 28004KT 10SM CLR 13/09 A2999 RMK AO2 T01340085
KCOM 251235Z AUTO 29004KT 10SM CLR 13/09 A2999 RMK AO2 T01300085
KCOM 251215Z AUTO 27004KT 10SM CLR 13/09 A2998 RMK AO2 T01330085
KCOM 251155Z AUTO 30004KT 10SM CLR 14/09 A2998 RMK AO2 T01350085 10182 20132
KCOM 251135Z AUTO 30004KT 10SM CLR 13/09 A2998 RMK AO2 T01340086
KCOM 251115Z AUTO 30003KT 10SM CLR 14/09 A2997 RMK AO2 T01390085
KCOM 251055Z AUTO 33003KT 10SM CLR 14/09 A2996 RMK AO2 T01350088
KCOM 251035Z AUTO 00000KT 10SM CLR 14/09 A2996 RMK AO2 T01400088
KCOM 251015Z AUTO 00000KT 10SM CLR 14/09 A2996 RMK AO2 T01370088
KCOM 250955Z AUTO 35003KT 10SM CLR 15/09 A2996 RMK AO2 T01470085
KCOM 250935Z AUTO 00000KT 10SM CLR 15/09 A2996 RMK AO2 T01480087
KCOM 250915Z AUTO 33003KT 10SM CLR 15/08 A2995 RMK AO2 T01500083
KCOM 250855Z AUTO 33003KT 10SM CLR 15/08 A2996 RMK AO2 T01510084
KCOM 250835Z AUTO 28003KT 10SM CLR 14/09 A2996 RMK AO2 T01440087
KCOM 250815Z AUTO 00000KT 10SM CLR 15/08 A2995 RMK AO2 T01500081
KCOM 250755Z AUTO 34003KT 10SM CLR 16/08 A2995 RMK AO2 T01620077
KCOM 250735Z AUTO 34003KT 10SM CLR 15/08 A2996 RMK AO2 T01520082
KCOM 250715Z AUTO 35003KT 10SM CLR 17/07 A2995 RMK AO2 T01740071
KCOM 250655Z AUTO 34003KT 10SM CLR 17/07 A2995 RMK AO2 T01720073
KCOM 250635Z AUTO 36003KT 10SM CLR 18/07 A2995 RMK AO2 T01760072
KCOM 250615Z AUTO 00000KT 10SM CLR 16/08 A2996 RMK AO2 T01640080
KCOM 250555Z AUTO 36004KT 10SM CLR 17/09 A2995 RMK AO2 T01650085 10279 20161 403220161
KCOM 250535Z AUTO 36004KT 10SM CLR 16/08 A2995 RMK AO2 T01610083
KCOM 250515Z AUTO 01005KT 10SM CLR 17/08 A2995 RMK AO2 T01730081
KCOM 250455Z AUTO 36004KT 10SM CLR 18/08 A2995 RMK AO2 T01780079
KCOM 250435Z AUTO 03004KT 10SM CLR 17/09 A2994 RMK AO2 T01670090
KCOM 250415Z AUTO 13003KT 10SM CLR 18/09 A2995 RMK AO2 T01810093
KCOM 250355Z AUTO 01009KT 10SM CLR 18/09 A2993 RMK AO2 T01840090
KCOM 250335Z AUTO 28006KT 10SM CLR 18/10 A2990 RMK AO2 T01790097
KCOM 250315Z AUTO 28006KT 10SM CLR 18/10 A2989 RMK AO2 T01840103
KCOM 250255Z AUTO 28006KT 10SM CLR 19/10 A2989 RMK AO2 T01920100
KCOM 250235Z AUTO 29004KT 10SM CLR 19/11 A2988 RMK AO2 T01930105
KCOM 250215Z AUTO 26003KT 10SM CLR 20/11 A2987 RMK AO2 T02000108
KCOM 250155Z AUTO 00000KT 10SM CLR 20/11 A2987 RMK AO2 T02030112
KCOM 250135Z AUTO 00000KT 10SM CLR 21/11 A2986 RMK AO2 T02090109
KCOM 250115Z AUTO 00000KT 10SM CLR 21/13 A2986 RMK AO2 T02100126
KCOM 250055Z AUTO 26004KT 10SM CLR 23/12 A2985 RMK AO2 T02250122
KCOM 250035Z AUTO 26003KT 10SM CLR 24/11 A2984 RMK AO2 T02430108
KCOM 250015Z AUTO 26003KT 10SM CLR 25/11 A2984 RMK AO2 T02520108
KCOM 242355Z AUTO 00000KT 10SM CLR 28/08 A2984 RMK AO2 T02800081 10322 20280
KCOM 242335Z AUTO 00000KT 10SM CLR 29/08 A2983 RMK AO2 T02940079
KCOM 242315Z AUTO 00000KT 10SM CLR 30/08 A2983 RMK AO2 T03030079
KCOM 242255Z AUTO 29005KT 10SM CLR 31/07 A2982 RMK AO2 T03140069
KCOM 242235Z AUTO 00000KT 10SM CLR 32/08 A2982 RMK AO2 T03200076
KCOM 242215Z AUTO 29004KT 10SM CLR 32/08 A2982 RMK AO2 T03220079
KCOM 242155Z AUTO 29004KT 10SM CLR 32/09 A2982 RMK AO2 T03220090
KCOM 242135Z AUTO 26005KT 10SM CLR 32/11 A2982 RMK AO2 T03220108
KCOM 242115Z AUTO 27006KT 10SM CLR 32/12 A2981 RMK AO2 T03220122
KCOM 242055Z AUTO 24010G14KT 10SM CLR 32/12 A2981 RMK AO2 T03200118
KCOM 242035Z AUTO 25007KT 10SM CLR 32/12 A2981 RMK AO2 T03160117
KCOM 242015Z AUTO 25006KT 10SM CLR 31/12 A2981 RMK AO2 T03130116
KCOM 241955Z AUTO 27007KT 10SM CLR 31/13 A2981 RMK AO2 T03110127
KCOM 241935Z AUTO 30007KT 250V320 10SM CLR 31/14 A2982 RMK AO2 T03070140
KCOM 241915Z AUTO 30009KT 10SM CLR 31/13 A2983 RMK AO2 T03070133
KCOM 241855Z AUTO 27008KT 10SM CLR 30/14 A2984 RMK AO2 T03030139
KCOM 241835Z AUTO 26010KT 10SM CLR 30/14 A2984 RMK AO2 T03000142
KCOM 241815Z AUTO 25009G16KT 10SM CLR 30/15 A2985 RMK AO2 T02980149
KCOM 241755Z AUTO 25010KT 10SM CLR 29/16 A2986 RMK AO2 T02930163 10293 20192
KCOM 241735Z AUTO 25011G16KT 10SM CLR 29/17 A2986 RMK AO2 T02870169
KCOM 241715Z AUTO 23011G16KT 10SM CLR 28/18 A2986 RMK AO2 T02820176
KCOM 241655Z AUTO 24010G16KT 10SM CLR 28/18 A2987 RMK AO2 T02750177
KCOM 241635Z AUTO 23011G19KT 10SM CLR 27/18 A2987 RMK AO2 T02680180
KCOM 241615Z AUTO 20012KT 10SM SCT026 26/18 A2987 RMK AO2 T02630181
KCOM 241555Z AUTO 21011G18KT 10SM SCT024 26/18 A2988 RMK AO2 T02600182
KCOM 241535Z AUTO 21012G15KT 10SM SCT024 26/18 A2988 RMK AO2 T02570183
KCOM 241515Z AUTO 23012G17KT 10SM CLR 25/18 A2988 RMK AO2 T02500183
KCOM 241455Z AUTO 23008KT 10SM CLR 24/18 A2987 RMK AO2 T02420184
KCOM 241435Z AUTO 21009KT 10SM SCT026 23/18 A2987 RMK AO2 T02340184
KCOM 241415Z AUTO 21009KT 10SM BKN026 23/18 A2987 RMK AO2 T02270182
KCOM 241355Z AUTO 21005KT 10SM BKN028 22/18 A2987 RMK AO2 T02160184
KCOM 241335Z AUTO 20003KT 10SM OVC026 21/18 A2987 RMK AO2 T02070183
KCOM 241315Z AUTO 21003KT 10SM OVC026 20/18 A2986 RMK AO2 T01980181
KCOM 241255Z AUTO 00000KT 10SM OVC026 19/18 A2985 RMK AO2 T01940178
KCOM 241235Z AUTO 00000KT 10SM BKN026 20/18 A2985 RMK AO2 T01950176
KCOM 241215Z AUTO 19003KT 10SM SCT028 20/18 A2984 RMK AO2 T02000178
KCOM 241155Z AUTO 20004KT 10SM BKN026 21/18 A2984 RMK AO2 T02050180 10213 20201